logo
Search for airport 
image banner adimage banner adimage banner ad
image banner ad

LZIB - Bratislava/M. R. Stefanik

Located in Bratislava, Slovakia

ICAO - LZIB, IATA - BTS

Data provided by Airmate  

General information

Coordinates: N48°10'12" E17°12'46"
Elevation is 436 feet MSL.
Magnetic variation is 4.8531° East
View others Airports in Bratislava

Operational data

Special qualification required
Current time UTC:
Current local time:
Weather
METAR: LZIB 140130Z VRB01KT CAVOK 11/09 Q1021 NOSIG
TAF: TAF LZIB 132315Z 1400/1500 VRB02KT CAVOK BECMG 1409/1411 27010KT TEMPO 1411/1414 28015G25KT BECMG 1418/1420 VRB02KT
View NOTAMs / SUP AIP / TFR affecting this airport [VIEW]
Communications frequencies: [VIEW]

Runways:

RWY identifierQFULength (ft)Width (ft)SurfaceLDA (ft)
13134°10466148CONC10466
31314°10466148CONC9678
0444°9514197CONC9514
22224°9514197CONC9514

Airport contact information

Address: Bratislava Slovakia

Other aviation service providers

Flight schools

Profipilot

Profipilot

Jetage

Jetage
info@jetage.sk+421948899000

Satellite view of LZIB